sensor_id;sensor_type;location;lat;lon;timestamp;temperature;humidity
49253;DHT22;35103;47.952;-1.502;2022-11-15T00:01:08;11.80;77.50
49253;DHT22;35103;47.952;-1.502;2022-11-15T00:03:33;11.80;77.50
49253;DHT22;35103;47.952;-1.502;2022-11-15T00:06:03;11.80;77.50
49253;DHT22;35103;47.952;-1.502;2022-11-15T00:08:31;11.80;77.60
49253;DHT22;35103;47.952;-1.502;2022-11-15T00:10:57;11.80;77.70
49253;DHT22;35103;47.952;-1.502;2022-11-15T00:13:23;11.90;77.50
49253;DHT22;35103;47.952;-1.502;2022-11-15T00:15:49;11.90;77.70
49253;DHT22;35103;47.952;-1.502;2022-11-15T00:18:15;11.90;77.50
49253;DHT22;35103;47.952;-1.502;2022-11-15T00:20:41;11.90;77.70
49253;DHT22;35103;47.952;-1.502;2022-11-15T00:23:07;11.90;77.60
49253;DHT22;35103;47.952;-1.502;2022-11-15T00:25:32;11.90;77.60
49253;DHT22;35103;47.952;-1.502;2022-11-15T00:27:59;11.90;77.70
49253;DHT22;35103;47.952;-1.502;2022-11-15T00:30:25;11.90;77.90
49253;DHT22;35103;47.952;-1.502;2022-11-15T00:32:50;11.90;77.90
49253;DHT22;35103;47.952;-1.502;2022-11-15T00:35:16;11.90;78.10
49253;DHT22;35103;47.952;-1.502;2022-11-15T00:37:42;11.90;78.10
49253;DHT22;35103;47.952;-1.502;2022-11-15T00:40:08;11.90;78.20
49253;DHT22;35103;47.952;-1.502;2022-11-15T00:42:34;11.90;78.40
49253;DHT22;35103;47.952;-1.502;2022-11-15T00:45:00;11.90;78.50
49253;DHT22;35103;47.952;-1.502;2022-11-15T00:47:25;11.80;78.40
49253;DHT22;35103;47.952;-1.502;2022-11-15T00:49:51;11.90;78.40
49253;DHT22;35103;47.952;-1.502;2022-11-15T00:52:16;11.90;78.30
49253;DHT22;35103;47.952;-1.502;2022-11-15T00:54:42;11.90;78.30
49253;DHT22;35103;47.952;-1.502;2022-11-15T00:57:07;11.90;78.30
49253;DHT22;35103;47.952;-1.502;2022-11-15T00:59:33;11.90;78.70
49253;DHT22;35103;47.952;-1.502;2022-11-15T01:01:58;11.90;78.70
49253;DHT22;35103;47.952;-1.502;2022-11-15T01:04:24;11.90;78.60
49253;DHT22;35103;47.952;-1.502;2022-11-15T01:06:50;11.90;78.60
49253;DHT22;35103;47.952;-1.502;2022-11-15T01:09:15;11.90;78.60
49253;DHT22;35103;47.952;-1.502;2022-11-15T01:11:41;12.00;78.40
49253;DHT22;35103;47.952;-1.502;2022-11-15T01:14:06;12.00;78.60
49253;DHT22;35103;47.952;-1.502;2022-11-15T01:16:32;12.00;78.70
49253;DHT22;35103;47.952;-1.502;2022-11-15T01:18:58;12.00;78.50
49253;DHT22;35103;47.952;-1.502;2022-11-15T01:21:23;12.10;78.50
49253;DHT22;35103;47.952;-1.502;2022-11-15T01:23:53;12.10;78.40
49253;DHT22;35103;47.952;-1.502;2022-11-15T01:26:18;12.10;78.50
49253;DHT22;35103;47.952;-1.502;2022-11-15T01:28:44;12.10;78.40
49253;DHT22;35103;47.952;-1.502;2022-11-15T01:31:18;12.20;78.40
49253;DHT22;35103;47.952;-1.502;2022-11-15T01:33:44;12.20;78.40
49253;DHT22;35103;47.952;-1.502;2022-11-15T01:36:17;12.20;78.40
49253;DHT22;35103;47.952;-1.502;2022-11-15T01:38:43;12.20;78.50
49253;DHT22;35103;47.952;-1.502;2022-11-15T01:41:19;12.20;78.50
49253;DHT22;35103;47.952;-1.502;2022-11-15T01:43:48;12.20;78.60
49253;DHT22;35103;47.952;-1.502;2022-11-15T01:46:36;12.30;78.60
49253;DHT22;35103;47.952;-1.502;2022-11-15T01:49:09;12.30;78.70
49253;DHT22;35103;47.952;-1.502;2022-11-15T01:51:36;12.30;78.70
49253;DHT22;35103;47.952;-1.502;2022-11-15T01:54:09;12.30;78.70
49253;DHT22;35103;47.952;-1.502;2022-11-15T01:56:46;12.30;78.80
49253;DHT22;35103;47.952;-1.502;2022-11-15T01:59:14;12.30;78.70
49253;DHT22;35103;47.952;-1.502;2022-11-15T02:01:40;12.30;78.60
49253;DHT22;35103;47.952;-1.502;2022-11-15T02:04:25;12.30;78.70
49253;DHT22;35103;47.952;-1.502;2022-11-15T02:06:51;12.40;78.60
49253;DHT22;35103;47.952;-1.502;2022-11-15T02:09:18;12.40;78.50
49253;DHT22;35103;47.952;-1.502;2022-11-15T02:11:44;12.40;78.60
49253;DHT22;35103;47.952;-1.502;2022-11-15T02:14:10;12.40;78.50
49253;DHT22;35103;47.952;-1.502;2022-11-15T02:36:02;12.50;78.50
49253;DHT22;35103;47.952;-1.502;2022-11-15T02:38:40;12.60;78.50
49253;DHT22;35103;47.952;-1.502;2022-11-15T02:44:20;12.60;78.50
49253;DHT22;35103;47.952;-1.502;2022-11-15T02:46:56;12.70;78.50
49253;DHT22;35103;47.952;-1.502;2022-11-15T02:49:28;12.70;78.40
49253;DHT22;35103;47.952;-1.502;2022-11-15T02:51:55;12.80;78.50
49253;DHT22;35103;47.952;-1.502;2022-11-15T02:54:26;12.80;78.40
49253;DHT22;35103;47.952;-1.502;2022-11-15T02:56:59;12.80;78.40
49253;DHT22;35103;47.952;-1.502;2022-11-15T03:05:04;12.80;78.50
49253;DHT22;35103;47.952;-1.502;2022-11-15T03:07:41;12.80;78.50
49253;DHT22;35103;47.952;-1.502;2022-11-15T03:10:23;12.80;78.60
49253;DHT22;35103;47.952;-1.502;2022-11-15T03:12:59;12.80;78.60
49253;DHT22;35103;47.952;-1.502;2022-11-15T03:15:37;12.80;78.60
49253;DHT22;35103;47.952;-1.502;2022-11-15T03:18:29;12.80;78.70
49253;DHT22;35103;47.952;-1.502;2022-11-15T03:21:00;12.90;78.60
49253;DHT22;35103;47.952;-1.502;2022-11-15T03:23:26;12.90;78.60
49253;DHT22;35103;47.952;-1.502;2022-11-15T03:25:55;12.90;78.60
49253;DHT22;35103;47.952;-1.502;2022-11-15T03:28:31;12.90;78.60
49253;DHT22;35103;47.952;-1.502;2022-11-15T03:30:59;12.90;78.70
49253;DHT22;35103;47.952;-1.502;2022-11-15T03:33:27;12.90;78.70
49253;DHT22;35103;47.952;-1.502;2022-11-15T03:35:54;12.90;78.80
49253;DHT22;35103;47.952;-1.502;2022-11-15T03:38:25;12.80;79.00
49253;DHT22;35103;47.952;-1.502;2022-11-15T03:41:03;12.80;79.00
49253;DHT22;35103;47.952;-1.502;2022-11-15T03:43:39;12.90;79.00
49253;DHT22;35103;47.952;-1.502;2022-11-15T03:46:20;12.90;78.90
49253;DHT22;35103;47.952;-1.502;2022-11-15T03:49:04;12.90;78.90
49253;DHT22;35103;47.952;-1.502;2022-11-15T03:51:31;12.90;79.00
49253;DHT22;35103;47.952;-1.502;2022-11-15T03:53:57;12.90;79.00
49253;DHT22;35103;47.952;-1.502;2022-11-15T03:56:22;12.90;79.10
49253;DHT22;35103;47.952;-1.502;2022-11-15T03:58:48;12.90;79.10
49253;DHT22;35103;47.952;-1.502;2022-11-15T04:01:14;12.90;79.20
49253;DHT22;35103;47.952;-1.502;2022-11-15T04:03:39;12.90;79.20
49253;DHT22;35103;47.952;-1.502;2022-11-15T04:06:05;12.90;79.20
49253;DHT22;35103;47.952;-1.502;2022-11-15T04:08:30;12.90;79.20
49253;DHT22;35103;47.952;-1.502;2022-11-15T04:10:56;13.00;79.20
49253;DHT22;35103;47.952;-1.502;2022-11-15T04:13:21;13.00;79.10
49253;DHT22;35103;47.952;-1.502;2022-11-15T04:15:47;13.00;79.20
49253;DHT22;35103;47.952;-1.502;2022-11-15T04:18:13;13.00;79.30
49253;DHT22;35103;47.952;-1.502;2022-11-15T04:20:38;13.00;79.40
49253;DHT22;35103;47.952;-1.502;2022-11-15T04:23:18;13.00;79.30
49253;DHT22;35103;47.952;-1.502;2022-11-15T04:25:44;12.90;79.50
49253;DHT22;35103;47.952;-1.502;2022-11-15T04:28:10;13.00;79.50
49253;DHT22;35103;47.952;-1.502;2022-11-15T04:30:36;13.00;79.50
49253;DHT22;35103;47.952;-1.502;2022-11-15T04:33:02;13.00;79.60
49253;DHT22;35103;47.952;-1.502;2022-11-15T04:35:28;13.00;79.80
49253;DHT22;35103;47.952;-1.502;2022-11-15T04:37:55;13.00;79.80
49253;DHT22;35103;47.952;-1.502;2022-11-15T04:40:21;13.00;79.80
49253;DHT22;35103;47.952;-1.502;2022-11-15T04:42:46;13.10;79.90
49253;DHT22;35103;47.952;-1.502;2022-11-15T04:45:12;13.00;79.90
49253;DHT22;35103;47.952;-1.502;2022-11-15T04:47:37;13.10;79.90
49253;DHT22;35103;47.952;-1.502;2022-11-15T04:50:03;13.10;80.10
49253;DHT22;35103;47.952;-1.502;2022-11-15T04:52:29;13.10;80.10
49253;DHT22;35103;47.952;-1.502;2022-11-15T04:54:55;13.10;80.20
49253;DHT22;35103;47.952;-1.502;2022-11-15T04:57:20;13.10;80.20
49253;DHT22;35103;47.952;-1.502;2022-11-15T04:59:46;13.10;80.30
49253;DHT22;35103;47.952;-1.502;2022-11-15T05:02:11;13.10;80.30
49253;DHT22;35103;47.952;-1.502;2022-11-15T05:04:37;13.10;80.50
49253;DHT22;35103;47.952;-1.502;2022-11-15T05:07:03;13.10;80.70
49253;DHT22;35103;47.952;-1.502;2022-11-15T05:09:28;13.10;80.60
49253;DHT22;35103;47.952;-1.502;2022-11-15T05:11:54;13.10;80.70
49253;DHT22;35103;47.952;-1.502;2022-11-15T05:14:19;13.00;81.10
49253;DHT22;35103;47.952;-1.502;2022-11-15T05:16:45;13.00;81.00
49253;DHT22;35103;47.952;-1.502;2022-11-15T05:19:11;13.00;81.10
49253;DHT22;35103;47.952;-1.502;2022-11-15T05:21:37;13.00;81.50
49253;DHT22;35103;47.952;-1.502;2022-11-15T05:24:03;13.00;81.70
49253;DHT22;35103;47.952;-1.502;2022-11-15T05:26:29;12.90;81.70
49253;DHT22;35103;47.952;-1.502;2022-11-15T05:28:56;12.90;81.70
49253;DHT22;35103;47.952;-1.502;2022-11-15T05:31:22;12.90;82.30
49253;DHT22;35103;47.952;-1.502;2022-11-15T05:33:49;12.90;82.20
49253;DHT22;35103;47.952;-1.502;2022-11-15T05:38:45;12.90;82.40
49253;DHT22;35103;47.952;-1.502;2022-11-15T05:41:12;12.80;82.40
49253;DHT22;35103;47.952;-1.502;2022-11-15T05:43:39;12.80;82.50
49253;DHT22;35103;47.952;-1.502;2022-11-15T05:46:05;12.80;82.80
49253;DHT22;35103;47.952;-1.502;2022-11-15T05:48:32;12.80;82.90
49253;DHT22;35103;47.952;-1.502;2022-11-15T05:50:59;12.80;83.30
49253;DHT22;35103;47.952;-1.502;2022-11-15T05:53:26;12.80;83.10
49253;DHT22;35103;47.952;-1.502;2022-11-15T05:55:51;12.80;83.10
49253;DHT22;35103;47.952;-1.502;2022-11-15T05:58:18;12.80;83.30
49253;DHT22;35103;47.952;-1.502;2022-11-15T06:00:44;12.90;83.60
49253;DHT22;35103;47.952;-1.502;2022-11-15T06:03:10;12.90;83.40
49253;DHT22;35103;47.952;-1.502;2022-11-15T06:05:35;12.90;83.50
49253;DHT22;35103;47.952;-1.502;2022-11-15T06:08:01;12.90;83.90
49253;DHT22;35103;47.952;-1.502;2022-11-15T06:10:27;12.90;84.10
49253;DHT22;35103;47.952;-1.502;2022-11-15T06:12:59;12.90;83.90
49253;DHT22;35103;47.952;-1.502;2022-11-15T06:15:25;12.90;84.30
49253;DHT22;35103;47.952;-1.502;2022-11-15T06:17:51;12.90;84.40
49253;DHT22;35103;47.952;-1.502;2022-11-15T06:20:17;12.90;84.50
49253;DHT22;35103;47.952;-1.502;2022-11-15T06:22:43;12.90;84.50
49253;DHT22;35103;47.952;-1.502;2022-11-15T06:25:09;12.90;84.30
49253;DHT22;35103;47.952;-1.502;2022-11-15T06:27:34;12.90;84.50
49253;DHT22;35103;47.952;-1.502;2022-11-15T06:30:00;12.90;84.40
49253;DHT22;35103;47.952;-1.502;2022-11-15T06:32:25;13.00;84.50
49253;DHT22;35103;47.952;-1.502;2022-11-15T06:34:51;13.00;84.80
49253;DHT22;35103;47.952;-1.502;2022-11-15T06:37:16;13.00;84.70
49253;DHT22;35103;47.952;-1.502;2022-11-15T06:39:43;13.00;84.70
49253;DHT22;35103;47.952;-1.502;2022-11-15T06:42:08;13.10;84.60
49253;DHT22;35103;47.952;-1.502;2022-11-15T06:44:34;13.10;84.90
49253;DHT22;35103;47.952;-1.502;2022-11-15T06:47:00;13.10;85.30
49253;DHT22;35103;47.952;-1.502;2022-11-15T06:49:25;13.00;85.30
49253;DHT22;35103;47.952;-1.502;2022-11-15T06:51:51;13.00;85.20
49253;DHT22;35103;47.952;-1.502;2022-11-15T06:54:16;13.10;85.10
49253;DHT22;35103;47.952;-1.502;2022-11-15T06:56:42;13.10;85.00
49253;DHT22;35103;47.952;-1.502;2022-11-15T06:59:07;13.10;84.80
49253;DHT22;35103;47.952;-1.502;2022-11-15T07:01:33;13.10;84.80
49253;DHT22;35103;47.952;-1.502;2022-11-15T07:03:59;13.00;85.10
49253;DHT22;35103;47.952;-1.502;2022-11-15T07:06:24;13.00;85.00
49253;DHT22;35103;47.952;-1.502;2022-11-15T07:08:50;12.90;84.90
49253;DHT22;35103;47.952;-1.502;2022-11-15T07:11:16;12.90;85.20
49253;DHT22;35103;47.952;-1.502;2022-11-15T07:13:42;12.90;85.00
49253;DHT22;35103;47.952;-1.502;2022-11-15T07:16:09;12.90;85.00
49253;DHT22;35103;47.952;-1.502;2022-11-15T07:18:36;12.90;85.10
49253;DHT22;35103;47.952;-1.502;2022-11-15T07:21:04;12.90;85.30
49253;DHT22;35103;47.952;-1.502;2022-11-15T07:23:30;12.90;85.40
49253;DHT22;35103;47.952;-1.502;2022-11-15T07:25:58;12.90;85.30
49253;DHT22;35103;47.952;-1.502;2022-11-15T07:28:25;12.80;85.50
49253;DHT22;35103;47.952;-1.502;2022-11-15T07:30:51;12.90;85.40
49253;DHT22;35103;47.952;-1.502;2022-11-15T07:33:16;12.90;85.50
49253;DHT22;35103;47.952;-1.502;2022-11-15T07:35:42;12.90;85.70
49253;DHT22;35103;47.952;-1.502;2022-11-15T07:38:08;12.90;85.50
49253;DHT22;35103;47.952;-1.502;2022-11-15T07:40:33;12.90;85.80
49253;DHT22;35103;47.952;-1.502;2022-11-15T07:43:04;12.90;85.90
49253;DHT22;35103;47.952;-1.502;2022-11-15T07:45:30;12.90;85.80
49253;DHT22;35103;47.952;-1.502;2022-11-15T07:47:56;12.90;86.10
49253;DHT22;35103;47.952;-1.502;2022-11-15T07:50:25;12.90;86.00
49253;DHT22;35103;47.952;-1.502;2022-11-15T07:52:55;12.90;86.00
49253;DHT22;35103;47.952;-1.502;2022-11-15T07:55:22;12.90;86.10
49253;DHT22;35103;47.952;-1.502;2022-11-15T07:57:48;13.00;86.20
49253;DHT22;35103;47.952;-1.502;2022-11-15T08:00:14;13.00;86.20
49253;DHT22;35103;47.952;-1.502;2022-11-15T08:02:40;13.00;86.30
49253;DHT22;35103;47.952;-1.502;2022-11-15T08:05:06;13.00;86.50
49253;DHT22;35103;47.952;-1.502;2022-11-15T08:07:32;13.00;86.40
49253;DHT22;35103;47.952;-1.502;2022-11-15T08:09:58;13.10;86.20
49253;DHT22;35103;47.952;-1.502;2022-11-15T08:12:24;13.10;86.40
49253;DHT22;35103;47.952;-1.502;2022-11-15T08:14:50;13.10;86.30
49253;DHT22;35103;47.952;-1.502;2022-11-15T08:17:15;13.10;86.60
49253;DHT22;35103;47.952;-1.502;2022-11-15T08:19:41;13.10;86.40
49253;DHT22;35103;47.952;-1.502;2022-11-15T08:22:07;13.10;86.30
49253;DHT22;35103;47.952;-1.502;2022-11-15T08:24:33;13.10;86.20
49253;DHT22;35103;47.952;-1.502;2022-11-15T08:26:58;13.10;86.60
49253;DHT22;35103;47.952;-1.502;2022-11-15T08:29:24;13.20;86.60
49253;DHT22;35103;47.952;-1.502;2022-11-15T08:31:49;13.20;86.70
49253;DHT22;35103;47.952;-1.502;2022-11-15T08:34:15;13.20;86.60
49253;DHT22;35103;47.952;-1.502;2022-11-15T08:36:40;13.20;86.70
49253;DHT22;35103;47.952;-1.502;2022-11-15T08:39:06;13.20;86.60
49253;DHT22;35103;47.952;-1.502;2022-11-15T08:41:34;13.20;86.80
49253;DHT22;35103;47.952;-1.502;2022-11-15T08:44:00;13.20;86.90
49253;DHT22;35103;47.952;-1.502;2022-11-15T08:46:25;13.30;86.80
49253;DHT22;35103;47.952;-1.502;2022-11-15T08:48:51;13.30;86.90
49253;DHT22;35103;47.952;-1.502;2022-11-15T08:51:16;13.30;86.80
49253;DHT22;35103;47.952;-1.502;2022-11-15T08:53:42;13.30;86.70
49253;DHT22;35103;47.952;-1.502;2022-11-15T08:56:09;13.30;86.90
49253;DHT22;35103;47.952;-1.502;2022-11-15T08:58:35;13.30;86.80
49253;DHT22;35103;47.952;-1.502;2022-11-15T09:01:01;13.40;86.90
49253;DHT22;35103;47.952;-1.502;2022-11-15T09:03:27;13.40;86.90
49253;DHT22;35103;47.952;-1.502;2022-11-15T09:05:57;13.30;87.00
49253;DHT22;35103;47.952;-1.502;2022-11-15T09:08:23;13.40;87.00
49253;DHT22;35103;47.952;-1.502;2022-11-15T09:10:49;13.40;87.00
49253;DHT22;35103;47.952;-1.502;2022-11-15T09:13:14;13.50;86.90
49253;DHT22;35103;47.952;-1.502;2022-11-15T09:15:45;13.50;86.90
49253;DHT22;35103;47.952;-1.502;2022-11-15T09:18:10;13.50;86.70
49253;DHT22;35103;47.952;-1.502;2022-11-15T09:20:36;13.60;86.80
49253;DHT22;35103;47.952;-1.502;2022-11-15T09:23:02;13.50;86.80
49253;DHT22;35103;47.952;-1.502;2022-11-15T09:25:28;13.60;86.70
49253;DHT22;35103;47.952;-1.502;2022-11-15T09:27:54;13.60;86.70
49253;DHT22;35103;47.952;-1.502;2022-11-15T09:30:20;13.60;86.60
49253;DHT22;35103;47.952;-1.502;2022-11-15T09:32:45;13.60;86.60
49253;DHT22;35103;47.952;-1.502;2022-11-15T09:35:11;13.70;86.50
49253;DHT22;35103;47.952;-1.502;2022-11-15T09:37:37;13.70;86.50
49253;DHT22;35103;47.952;-1.502;2022-11-15T09:40:03;13.70;86.60
49253;DHT22;35103;47.952;-1.502;2022-11-15T09:50:57;13.80;86.60
49253;DHT22;35103;47.952;-1.502;2022-11-15T09:53:32;13.80;86.60
49253;DHT22;35103;47.952;-1.502;2022-11-15T09:56:02;13.80;86.80
49253;DHT22;35103;47.952;-1.502;2022-11-15T10:01:05;13.80;86.90
49253;DHT22;35103;47.952;-1.502;2022-11-15T10:03:38;13.80;86.90
49253;DHT22;35103;47.952;-1.502;2022-11-15T10:06:05;13.80;87.00
49253;DHT22;35103;47.952;-1.502;2022-11-15T10:09:10;13.80;87.00
49253;DHT22;35103;47.952;-1.502;2022-11-15T10:11:37;13.90;87.10
49253;DHT22;35103;47.952;-1.502;2022-11-15T10:14:10;13.90;87.10
49253;DHT22;35103;47.952;-1.502;2022-11-15T10:17:02;13.90;87.10
49253;DHT22;35103;47.952;-1.502;2022-11-15T10:19:38;13.90;87.00
49253;DHT22;35103;47.952;-1.502;2022-11-15T10:22:26;13.90;87.00
49253;DHT22;35103;47.952;-1.502;2022-11-15T10:28:27;13.90;87.20
49253;DHT22;35103;47.952;-1.502;2022-11-15T10:30:56;13.90;87.30
49253;DHT22;35103;47.952;-1.502;2022-11-15T10:36:16;13.80;87.60
49253;DHT22;35103;47.952;-1.502;2022-11-15T10:38:53;13.90;87.50
49253;DHT22;35103;47.952;-1.502;2022-11-15T10:46:39;14.10;87.50
49253;DHT22;35103;47.952;-1.502;2022-11-15T10:49:15;14.20;87.30
49253;DHT22;35103;47.952;-1.502;2022-11-15T10:52:12;14.30;87.10
49253;DHT22;35103;47.952;-1.502;2022-11-15T10:54:41;14.30;87.00
49253;DHT22;35103;47.952;-1.502;2022-11-15T10:57:18;14.30;87.00
49253;DHT22;35103;47.952;-1.502;2022-11-15T10:59:53;14.30;87.00
49253;DHT22;35103;47.952;-1.502;2022-11-15T11:04:54;14.50;86.90
49253;DHT22;35103;47.952;-1.502;2022-11-15T11:07:25;14.50;86.80
49253;DHT22;35103;47.952;-1.502;2022-11-15T11:10:18;14.50;86.90
49253;DHT22;35103;47.952;-1.502;2022-11-15T11:12:47;14.60;87.00
49253;DHT22;35103;47.952;-1.502;2022-11-15T11:15:14;14.60;87.00
49253;DHT22;35103;47.952;-1.502;2022-11-15T11:20:44;14.70;86.70
49253;DHT22;35103;47.952;-1.502;2022-11-15T11:32:03;14.80;86.40
49253;DHT22;35103;47.952;-1.502;2022-11-15T11:47:59;14.80;86.20
49253;DHT22;35103;47.952;-1.502;2022-11-15T11:50:28;14.80;86.00
49253;DHT22;35103;47.952;-1.502;2022-11-15T11:55:53;14.80;85.60
49253;DHT22;35103;47.952;-1.502;2022-11-15T11:58:41;14.70;85.60
49253;DHT22;35103;47.952;-1.502;2022-11-15T12:06:39;14.80;85.20
49253;DHT22;35103;47.952;-1.502;2022-11-15T12:14:43;15.30;85.50
49253;DHT22;35103;47.952;-1.502;2022-11-15T12:17:11;15.30;84.20
49253;DHT22;35103;47.952;-1.502;2022-11-15T12:19:38;15.20;83.40
49253;DHT22;35103;47.952;-1.502;2022-11-15T12:22:04;15.10;83.90
49253;DHT22;35103;47.952;-1.502;2022-11-15T12:24:43;15.00;83.40
49253;DHT22;35103;47.952;-1.502;2022-11-15T12:29:54;14.90;84.20
49253;DHT22;35103;47.952;-1.502;2022-11-15T12:32:28;14.90;84.00
49253;DHT22;35103;47.952;-1.502;2022-11-15T12:34:55;14.90;84.20
49253;DHT22;35103;47.952;-1.502;2022-11-15T12:47:25;15.00;83.70
49253;DHT22;35103;47.952;-1.502;2022-11-15T12:49:51;15.00;84.10
49253;DHT22;35103;47.952;-1.502;2022-11-15T12:52:17;15.00;84.40
49253;DHT22;35103;47.952;-1.502;2022-11-15T12:59:53;15.30;84.60
49253;DHT22;35103;47.952;-1.502;2022-11-15T13:02:24;15.40;83.80
49253;DHT22;35103;47.952;-1.502;2022-11-15T13:04:51;15.40;83.80
49253;DHT22;35103;47.952;-1.502;2022-11-15T13:23:00;15.30;84.00
49253;DHT22;35103;47.952;-1.502;2022-11-15T13:25:30;15.20;84.10
49253;DHT22;35103;47.952;-1.502;2022-11-15T13:28:02;15.00;84.20
49253;DHT22;35103;47.952;-1.502;2022-11-15T13:30:30;15.00;84.40
49253;DHT22;35103;47.952;-1.502;2022-11-15T13:32:58;14.90;84.40
49253;DHT22;35103;47.952;-1.502;2022-11-15T13:35:28;14.80;84.40
49253;DHT22;35103;47.952;-1.502;2022-11-15T13:37:55;14.70;84.30
49253;DHT22;35103;47.952;-1.502;2022-11-15T13:40:27;14.70;84.10
49253;DHT22;35103;47.952;-1.502;2022-11-15T13:42:53;14.80;84.20
49253;DHT22;35103;47.952;-1.502;2022-11-15T13:45:19;14.70;84.20
49253;DHT22;35103;47.952;-1.502;2022-11-15T13:47:54;14.80;84.10
49253;DHT22;35103;47.952;-1.502;2022-11-15T13:50:21;14.70;83.70
49253;DHT22;35103;47.952;-1.502;2022-11-15T13:52:47;14.70;83.70
49253;DHT22;35103;47.952;-1.502;2022-11-15T13:55:19;14.70;83.90
49253;DHT22;35103;47.952;-1.502;2022-11-15T13:57:57;14.80;83.90
49253;DHT22;35103;47.952;-1.502;2022-11-15T14:00:42;14.70;83.70
49253;DHT22;35103;47.952;-1.502;2022-11-15T14:05:41;14.60;83.60
49253;DHT22;35103;47.952;-1.502;2022-11-15T14:10:41;14.50;83.80
49253;DHT22;35103;47.952;-1.502;2022-11-15T14:13:26;14.50;83.70
49253;DHT22;35103;47.952;-1.502;2022-11-15T14:15:52;14.40;83.80
49253;DHT22;35103;47.952;-1.502;2022-11-15T14:18:44;14.50;84.40
49253;DHT22;35103;47.952;-1.502;2022-11-15T14:21:10;14.60;84.50
49253;DHT22;35103;47.952;-1.502;2022-11-15T14:23:36;14.80;85.30
49253;DHT22;35103;47.952;-1.502;2022-11-15T14:26:01;15.20;84.50
49253;DHT22;35103;47.952;-1.502;2022-11-15T14:30:54;14.90;80.60
49253;DHT22;35103;47.952;-1.502;2022-11-15T14:33:37;14.90;79.40
49253;DHT22;35103;47.952;-1.502;2022-11-15T14:36:14;15.00;80.50
49253;DHT22;35103;47.952;-1.502;2022-11-15T14:38:40;15.00;78.60
49253;DHT22;35103;47.952;-1.502;2022-11-15T14:41:34;15.00;80.00
49253;DHT22;35103;47.952;-1.502;2022-11-15T14:43:56;15.60;80.20
49253;DHT22;35103;47.952;-1.502;2022-11-15T14:46:21;16.30;77.90
49253;DHT22;35103;47.952;-1.502;2022-11-15T14:48:47;16.80;77.20
49253;DHT22;35103;47.952;-1.502;2022-11-15T14:51:15;17.20;76.70
49253;DHT22;35103;47.952;-1.502;2022-11-15T14:53:41;17.50;75.90
49253;DHT22;35103;47.952;-1.502;2022-11-15T14:56:08;17.50;73.20
49253;DHT22;35103;47.952;-1.502;2022-11-15T14:58:34;17.10;72.00
49253;DHT22;35103;47.952;-1.502;2022-11-15T15:03:36;16.10;73.50
49253;DHT22;35103;47.952;-1.502;2022-11-15T15:06:01;15.70;75.00
49253;DHT22;35103;47.952;-1.502;2022-11-15T15:08:27;15.30;75.20
49253;DHT22;35103;47.952;-1.502;2022-11-15T15:10:52;15.10;76.30
49253;DHT22;35103;47.952;-1.502;2022-11-15T15:13:20;15.10;77.30
49253;DHT22;35103;47.952;-1.502;2022-11-15T15:15:47;15.30;75.90
49253;DHT22;35103;47.952;-1.502;2022-11-15T15:18:13;15.30;73.40
49253;DHT22;35103;47.952;-1.502;2022-11-15T15:20:41;15.20;74.00
49253;DHT22;35103;47.952;-1.502;2022-11-15T15:23:25;15.10;73.30
49253;DHT22;35103;47.952;-1.502;2022-11-15T15:25:50;15.10;74.70
49253;DHT22;35103;47.952;-1.502;2022-11-15T15:28:16;15.60;74.00
49253;DHT22;35103;47.952;-1.502;2022-11-15T15:30:41;16.00;73.70
49253;DHT22;35103;47.952;-1.502;2022-11-15T15:33:07;16.10;71.90
49253;DHT22;35103;47.952;-1.502;2022-11-15T15:35:34;15.80;70.60
49253;DHT22;35103;47.952;-1.502;2022-11-15T15:38:01;15.50;72.10
49253;DHT22;35103;47.952;-1.502;2022-11-15T15:40:29;15.10;71.50
49253;DHT22;35103;47.952;-1.502;2022-11-15T15:42:55;14.90;72.70
49253;DHT22;35103;47.952;-1.502;2022-11-15T15:45:20;14.60;72.60
49253;DHT22;35103;47.952;-1.502;2022-11-15T15:47:46;14.40;72.60
49253;DHT22;35103;47.952;-1.502;2022-11-15T15:50:28;14.20;72.80
49253;DHT22;35103;47.952;-1.502;2022-11-15T15:52:56;14.10;73.40
49253;DHT22;35103;47.952;-1.502;2022-11-15T15:55:22;13.90;73.40
49253;DHT22;35103;47.952;-1.502;2022-11-15T15:57:48;13.80;73.50
49253;DHT22;35103;47.952;-1.502;2022-11-15T16:00:15;13.80;73.60
49253;DHT22;35103;47.952;-1.502;2022-11-15T16:02:40;13.60;73.90
49253;DHT22;35103;47.952;-1.502;2022-11-15T16:05:07;13.50;73.80
49253;DHT22;35103;47.952;-1.502;2022-11-15T16:07:33;13.40;73.50
49253;DHT22;35103;47.952;-1.502;2022-11-15T16:10:23;13.30;73.70
49253;DHT22;35103;47.952;-1.502;2022-11-15T16:12:48;13.30;74.30
49253;DHT22;35103;47.952;-1.502;2022-11-15T16:15:18;13.20;74.40
49253;DHT22;35103;47.952;-1.502;2022-11-15T16:17:51;13.20;74.80
49253;DHT22;35103;47.952;-1.502;2022-11-15T16:20:40;13.10;75.00
49253;DHT22;35103;47.952;-1.502;2022-11-15T16:23:09;13.10;75.30
49253;DHT22;35103;47.952;-1.502;2022-11-15T16:25:51;13.00;75.50
49253;DHT22;35103;47.952;-1.502;2022-11-15T16:28:28;12.90;75.40
49253;DHT22;35103;47.952;-1.502;2022-11-15T16:31:04;12.90;75.50
49253;DHT22;35103;47.952;-1.502;2022-11-15T16:33:30;12.80;75.70
49253;DHT22;35103;47.952;-1.502;2022-11-15T16:35:55;12.80;75.80
49253;DHT22;35103;47.952;-1.502;2022-11-15T16:38:21;12.80;76.00
49253;DHT22;35103;47.952;-1.502;2022-11-15T16:40:47;12.80;76.10
49253;DHT22;35103;47.952;-1.502;2022-11-15T16:43:12;12.70;76.20
49253;DHT22;35103;47.952;-1.502;2022-11-15T16:45:38;12.60;76.20
49253;DHT22;35103;47.952;-1.502;2022-11-15T16:48:04;12.60;76.20
49253;DHT22;35103;47.952;-1.502;2022-11-15T16:50:32;12.50;76.20
49253;DHT22;35103;47.952;-1.502;2022-11-15T16:52:58;12.40;76.40
49253;DHT22;35103;47.952;-1.502;2022-11-15T16:55:26;12.40;76.50
49253;DHT22;35103;47.952;-1.502;2022-11-15T16:57:53;12.30;76.60
49253;DHT22;35103;47.952;-1.502;2022-11-15T17:00:20;12.30;76.80
49253;DHT22;35103;47.952;-1.502;2022-11-15T17:02:48;12.30;76.80
49253;DHT22;35103;47.952;-1.502;2022-11-15T17:05:15;12.30;77.20
49253;DHT22;35103;47.952;-1.502;2022-11-15T17:07:41;12.20;77.40
49253;DHT22;35103;47.952;-1.502;2022-11-15T17:10:09;12.10;77.70
49253;DHT22;35103;47.952;-1.502;2022-11-15T17:12:36;12.10;77.70
49253;DHT22;35103;47.952;-1.502;2022-11-15T17:15:02;12.10;77.80
49253;DHT22;35103;47.952;-1.502;2022-11-15T17:17:28;12.00;78.00
49253;DHT22;35103;47.952;-1.502;2022-11-15T17:19:53;12.00;78.00
49253;DHT22;35103;47.952;-1.502;2022-11-15T17:22:20;12.00;77.80
49253;DHT22;35103;47.952;-1.502;2022-11-15T17:24:45;12.00;78.10
49253;DHT22;35103;47.952;-1.502;2022-11-15T17:27:11;11.90;78.20
49253;DHT22;35103;47.952;-1.502;2022-11-15T17:29:37;11.90;78.20
49253;DHT22;35103;47.952;-1.502;2022-11-15T17:32:03;11.90;78.10
49253;DHT22;35103;47.952;-1.502;2022-11-15T17:34:29;11.90;78.10
49253;DHT22;35103;47.952;-1.502;2022-11-15T17:36:54;11.80;78.30
49253;DHT22;35103;47.952;-1.502;2022-11-15T17:39:20;11.80;78.30
49253;DHT22;35103;47.952;-1.502;2022-11-15T17:41:46;11.80;78.40